sensor_id;sensor_type;location;lat;lon;timestamp;temperature;humidity
921;DHT22;447;51.332;6.778;2023-04-25T00:00:12;12.50;95.10
921;DHT22;447;51.332;6.778;2023-04-25T00:02:41;12.60;95.10
921;DHT22;447;51.332;6.778;2023-04-25T00:05:08;12.50;95.50
921;DHT22;447;51.332;6.778;2023-04-25T00:07:34;12.50;95.10
921;DHT22;447;51.332;6.778;2023-04-25T00:10:00;12.50;95.10
921;DHT22;447;51.332;6.778;2023-04-25T00:12:26;12.50;95.10
921;DHT22;447;51.332;6.778;2023-04-25T00:14:55;12.50;95.10
921;DHT22;447;51.332;6.778;2023-04-25T00:17:23;12.50;95.10
921;DHT22;447;51.332;6.778;2023-04-25T00:19:50;12.50;95.10
921;DHT22;447;51.332;6.778;2023-04-25T00:22:21;12.50;95.10
921;DHT22;447;51.332;6.778;2023-04-25T00:24:47;12.50;95.10
921;DHT22;447;51.332;6.778;2023-04-25T00:27:13;12.50;95.10
921;DHT22;447;51.332;6.778;2023-04-25T00:29:43;12.50;95.10
921;DHT22;447;51.332;6.778;2023-04-25T00:32:12;12.50;95.10
921;DHT22;447;51.332;6.778;2023-04-25T00:34:38;12.40;95.00
921;DHT22;447;51.332;6.778;2023-04-25T00:37:08;12.50;95.10
921;DHT22;447;51.332;6.778;2023-04-25T00:39:34;12.40;95.10
921;DHT22;447;51.332;6.778;2023-04-25T00:42:00;12.40;95.10
921;DHT22;447;51.332;6.778;2023-04-25T00:44:27;12.40;95.10
921;DHT22;447;51.332;6.778;2023-04-25T00:46:57;12.40;95.10
921;DHT22;447;51.332;6.778;2023-04-25T00:49:26;12.40;95.10
921;DHT22;447;51.332;6.778;2023-04-25T00:51:52;12.40;95.10
921;DHT22;447;51.332;6.778;2023-04-25T00:54:21;12.40;95.10
921;DHT22;447;51.332;6.778;2023-04-25T00:56:47;12.40;95.10
921;DHT22;447;51.332;6.778;2023-04-25T00:59:17;12.40;95.10
921;DHT22;447;51.332;6.778;2023-04-25T01:01:44;12.40;95.10
921;DHT22;447;51.332;6.778;2023-04-25T01:04:17;12.30;95.10
921;DHT22;447;51.332;6.778;2023-04-25T01:06:43;12.40;95.20
921;DHT22;447;51.332;6.778;2023-04-25T01:09:12;12.30;95.10
921;DHT22;447;51.332;6.778;2023-04-25T01:11:40;12.30;95.10
921;DHT22;447;51.332;6.778;2023-04-25T01:14:09;12.30;95.20
921;DHT22;447;51.332;6.778;2023-04-25T01:16:37;12.30;95.20
921;DHT22;447;51.332;6.778;2023-04-25T01:19:09;12.30;95.20
921;DHT22;447;51.332;6.778;2023-04-25T01:21:36;12.30;95.20
921;DHT22;447;51.332;6.778;2023-04-25T01:24:02;12.30;95.20
921;DHT22;447;51.332;6.778;2023-04-25T01:26:31;12.30;95.20
921;DHT22;447;51.332;6.778;2023-04-25T01:28:58;12.30;95.20
921;DHT22;447;51.332;6.778;2023-04-25T01:31:28;12.30;95.20
921;DHT22;447;51.332;6.778;2023-04-25T01:33:55;12.30;95.20
921;DHT22;447;51.332;6.778;2023-04-25T01:36:22;12.30;95.20
921;DHT22;447;51.332;6.778;2023-04-25T01:38:48;12.30;95.20
921;DHT22;447;51.332;6.778;2023-04-25T01:41:14;12.30;95.20
921;DHT22;447;51.332;6.778;2023-04-25T01:43:46;12.20;95.20
921;DHT22;447;51.332;6.778;2023-04-25T01:46:14;12.30;95.30
921;DHT22;447;51.332;6.778;2023-04-25T01:48:40;12.30;95.30
921;DHT22;447;51.332;6.778;2023-04-25T01:51:09;12.30;95.30
921;DHT22;447;51.332;6.778;2023-04-25T01:53:37;12.20;95.20
921;DHT22;447;51.332;6.778;2023-04-25T01:56:04;12.30;95.30
921;DHT22;447;51.332;6.778;2023-04-25T01:58:33;12.20;95.20
921;DHT22;447;51.332;6.778;2023-04-25T02:01:04;12.20;95.20
921;DHT22;447;51.332;6.778;2023-04-25T02:03:38;12.20;95.30
921;DHT22;447;51.332;6.778;2023-04-25T02:06:14;12.20;95.20
921;DHT22;447;51.332;6.778;2023-04-25T02:08:43;12.20;95.30
921;DHT22;447;51.332;6.778;2023-04-25T02:11:11;12.20;95.30
921;DHT22;447;51.332;6.778;2023-04-25T02:13:46;12.20;95.30
921;DHT22;447;51.332;6.778;2023-04-25T02:16:32;12.20;95.30
921;DHT22;447;51.332;6.778;2023-04-25T02:19:00;12.20;95.30
921;DHT22;447;51.332;6.778;2023-04-25T02:21:28;12.20;95.30
921;DHT22;447;51.332;6.778;2023-04-25T02:23:54;12.20;95.30
921;DHT22;447;51.332;6.778;2023-04-25T02:26:25;12.20;95.30
921;DHT22;447;51.332;6.778;2023-04-25T02:28:51;12.20;95.30
921;DHT22;447;51.332;6.778;2023-04-25T02:31:19;12.20;95.40
921;DHT22;447;51.332;6.778;2023-04-25T02:33:47;12.20;95.40
921;DHT22;447;51.332;6.778;2023-04-25T02:36:13;12.10;95.30
921;DHT22;447;51.332;6.778;2023-04-25T02:38:41;12.20;95.40
921;DHT22;447;51.332;6.778;2023-04-25T02:41:10;12.10;95.30
921;DHT22;447;51.332;6.778;2023-04-25T02:43:38;12.10;95.30
921;DHT22;447;51.332;6.778;2023-04-25T02:46:04;12.10;95.30
921;DHT22;447;51.332;6.778;2023-04-25T02:48:30;12.10;95.30
921;DHT22;447;51.332;6.778;2023-04-25T02:50:59;12.10;95.30
921;DHT22;447;51.332;6.778;2023-04-25T02:53:27;12.10;95.30
921;DHT22;447;51.332;6.778;2023-04-25T02:55:56;12.10;95.40
921;DHT22;447;51.332;6.778;2023-04-25T02:58:24;12.10;95.40
921;DHT22;447;51.332;6.778;2023-04-25T03:00:54;12.10;95.40
921;DHT22;447;51.332;6.778;2023-04-25T03:03:20;12.10;95.40
921;DHT22;447;51.332;6.778;2023-04-25T03:05:53;12.10;95.40
921;DHT22;447;51.332;6.778;2023-04-25T03:08:26;12.10;95.50
921;DHT22;447;51.332;6.778;2023-04-25T03:10:58;12.10;95.40
921;DHT22;447;51.332;6.778;2023-04-25T03:13:33;12.10;95.40
921;DHT22;447;51.332;6.778;2023-04-25T03:16:02;12.10;95.40
921;DHT22;447;51.332;6.778;2023-04-25T03:18:31;12.00;95.40
921;DHT22;447;51.332;6.778;2023-04-25T03:21:00;12.00;95.40
921;DHT22;447;51.332;6.778;2023-04-25T03:23:26;12.00;95.40
921;DHT22;447;51.332;6.778;2023-04-25T03:26:01;12.00;95.40
921;DHT22;447;51.332;6.778;2023-04-25T03:28:32;12.00;95.40
921;DHT22;447;51.332;6.778;2023-04-25T03:31:01;12.00;95.40
921;DHT22;447;51.332;6.778;2023-04-25T03:33:27;12.00;95.40
921;DHT22;447;51.332;6.778;2023-04-25T03:36:00;12.00;95.40
921;DHT22;447;51.332;6.778;2023-04-25T03:38:32;12.00;95.40
921;DHT22;447;51.332;6.778;2023-04-25T03:41:01;12.00;95.50
921;DHT22;447;51.332;6.778;2023-04-25T03:43:40;12.00;95.50
921;DHT22;447;51.332;6.778;2023-04-25T03:46:16;12.00;95.40
921;DHT22;447;51.332;6.778;2023-04-25T03:48:42;12.00;95.40
921;DHT22;447;51.332;6.778;2023-04-25T03:51:13;12.00;95.40
921;DHT22;447;51.332;6.778;2023-04-25T03:53:42;12.00;95.50
921;DHT22;447;51.332;6.778;2023-04-25T03:56:28;12.00;95.50
921;DHT22;447;51.332;6.778;2023-04-25T03:59:01;12.00;95.50
921;DHT22;447;51.332;6.778;2023-04-25T04:01:28;12.00;95.50
921;DHT22;447;51.332;6.778;2023-04-25T04:03:57;11.90;95.50
921;DHT22;447;51.332;6.778;2023-04-25T04:06:23;11.90;95.50
921;DHT22;447;51.332;6.778;2023-04-25T04:08:56;11.90;95.50
921;DHT22;447;51.332;6.778;2023-04-25T04:11:26;11.90;95.50
921;DHT22;447;51.332;6.778;2023-04-25T04:13:52;11.90;95.50
921;DHT22;447;51.332;6.778;2023-04-25T04:16:21;11.90;95.60
921;DHT22;447;51.332;6.778;2023-04-25T04:18:47;11.90;95.50
921;DHT22;447;51.332;6.778;2023-04-25T04:21:15;11.90;95.90
921;DHT22;447;51.332;6.778;2023-04-25T04:23:41;11.90;95.60
921;DHT22;447;51.332;6.778;2023-04-25T04:26:10;11.90;95.50
921;DHT22;447;51.332;6.778;2023-04-25T04:29:04;11.90;95.60
921;DHT22;447;51.332;6.778;2023-04-25T04:31:44;11.90;95.50
921;DHT22;447;51.332;6.778;2023-04-25T04:34:11;11.90;95.50
921;DHT22;447;51.332;6.778;2023-04-25T04:36:42;11.90;95.50
921;DHT22;447;51.332;6.778;2023-04-25T04:39:08;11.90;95.50
921;DHT22;447;51.332;6.778;2023-04-25T04:42:03;11.90;95.50
921;DHT22;447;51.332;6.778;2023-04-25T04:44:53;11.80;95.50
921;DHT22;447;51.332;6.778;2023-04-25T04:47:39;11.80;95.50
921;DHT22;447;51.332;6.778;2023-04-25T04:50:33;11.80;95.50
921;DHT22;447;51.332;6.778;2023-04-25T04:53:18;11.80;95.50
921;DHT22;447;51.332;6.778;2023-04-25T04:55:53;11.80;95.50
921;DHT22;447;51.332;6.778;2023-04-25T04:58:48;11.80;95.50
921;DHT22;447;51.332;6.778;2023-04-25T05:01:44;11.80;95.60
921;DHT22;447;51.332;6.778;2023-04-25T05:04:33;11.80;95.60
921;DHT22;447;51.332;6.778;2023-04-25T05:07:18;11.80;95.60
921;DHT22;447;51.332;6.778;2023-04-25T05:10:03;11.80;95.60
921;DHT22;447;51.332;6.778;2023-04-25T05:12:32;11.80;95.60
921;DHT22;447;51.332;6.778;2023-04-25T05:15:29;11.80;95.60
921;DHT22;447;51.332;6.778;2023-04-25T05:18:19;11.80;95.60
921;DHT22;447;51.332;6.778;2023-04-25T05:21:05;11.70;95.50
921;DHT22;447;51.332;6.778;2023-04-25T05:23:54;11.70;95.50
921;DHT22;447;51.332;6.778;2023-04-25T05:26:44;11.70;95.50
921;DHT22;447;51.332;6.778;2023-04-25T05:29:29;11.70;95.50
921;DHT22;447;51.332;6.778;2023-04-25T05:32:26;11.70;95.50
921;DHT22;447;51.332;6.778;2023-04-25T05:34:53;11.70;95.60
921;DHT22;447;51.332;6.778;2023-04-25T05:37:26;11.70;95.60
921;DHT22;447;51.332;6.778;2023-04-25T05:39:56;11.70;95.50
921;DHT22;447;51.332;6.778;2023-04-25T05:42:51;11.70;95.50
921;DHT22;447;51.332;6.778;2023-04-25T05:45:19;11.70;95.50
921;DHT22;447;51.332;6.778;2023-04-25T05:48:05;11.70;95.50
921;DHT22;447;51.332;6.778;2023-04-25T05:50:54;11.70;95.50
921;DHT22;447;51.332;6.778;2023-04-25T05:53:41;11.70;95.50
921;DHT22;447;51.332;6.778;2023-04-25T05:56:14;11.70;95.50
921;DHT22;447;51.332;6.778;2023-04-25T05:58:42;11.70;95.50
921;DHT22;447;51.332;6.778;2023-04-25T06:01:11;11.70;95.50
921;DHT22;447;51.332;6.778;2023-04-25T06:03:37;11.70;95.50
921;DHT22;447;51.332;6.778;2023-04-25T06:06:06;11.70;95.50
921;DHT22;447;51.332;6.778;2023-04-25T06:08:34;11.70;95.50
921;DHT22;447;51.332;6.778;2023-04-25T06:11:00;11.70;95.50
921;DHT22;447;51.332;6.778;2023-04-25T06:13:26;11.70;95.50
921;DHT22;447;51.332;6.778;2023-04-25T06:15:55;11.70;95.50
921;DHT22;447;51.332;6.778;2023-04-25T06:18:21;11.70;95.50
921;DHT22;447;51.332;6.778;2023-04-25T06:20:52;11.70;95.40
921;DHT22;447;51.332;6.778;2023-04-25T06:23:20;11.70;95.40
921;DHT22;447;51.332;6.778;2023-04-25T06:25:51;11.70;95.40
921;DHT22;447;51.332;6.778;2023-04-25T06:28:17;11.70;95.30
921;DHT22;447;51.332;6.778;2023-04-25T06:30:44;11.70;95.30
921;DHT22;447;51.332;6.778;2023-04-25T06:33:13;11.70;95.40
921;DHT22;447;51.332;6.778;2023-04-25T06:35:40;11.70;95.40
921;DHT22;447;51.332;6.778;2023-04-25T06:38:09;11.70;95.30
921;DHT22;447;51.332;6.778;2023-04-25T06:40:37;11.70;95.30
921;DHT22;447;51.332;6.778;2023-04-25T06:43:03;11.70;95.30
921;DHT22;447;51.332;6.778;2023-04-25T06:45:47;11.70;95.20
921;DHT22;447;51.332;6.778;2023-04-25T06:48:19;11.60;95.20
921;DHT22;447;51.332;6.778;2023-04-25T06:50:45;11.60;95.30
921;DHT22;447;51.332;6.778;2023-04-25T06:53:14;11.60;95.20
921;DHT22;447;51.332;6.778;2023-04-25T06:55:43;11.60;95.20
921;DHT22;447;51.332;6.778;2023-04-25T06:58:25;11.60;95.20
921;DHT22;447;51.332;6.778;2023-04-25T07:00:53;11.60;95.20
921;DHT22;447;51.332;6.778;2023-04-25T07:03:26;11.60;95.20
921;DHT22;447;51.332;6.778;2023-04-25T07:06:00;11.60;95.20
921;DHT22;447;51.332;6.778;2023-04-25T07:08:29;11.60;95.20
921;DHT22;447;51.332;6.778;2023-04-25T07:10:56;11.70;95.30
921;DHT22;447;51.332;6.778;2023-04-25T07:13:22;11.70;95.20
921;DHT22;447;51.332;6.778;2023-04-25T07:15:48;11.70;95.20
921;DHT22;447;51.332;6.778;2023-04-25T07:18:16;11.70;95.30
921;DHT22;447;51.332;6.778;2023-04-25T07:20:44;11.70;95.20
921;DHT22;447;51.332;6.778;2023-04-25T07:23:15;11.70;95.20
921;DHT22;447;51.332;6.778;2023-04-25T07:25:41;11.70;95.10
921;DHT22;447;51.332;6.778;2023-04-25T07:28:10;11.70;95.10
921;DHT22;447;51.332;6.778;2023-04-25T07:30:36;11.70;95.10
921;DHT22;447;51.332;6.778;2023-04-25T07:33:05;11.70;95.10
921;DHT22;447;51.332;6.778;2023-04-25T07:35:32;11.70;95.00
921;DHT22;447;51.332;6.778;2023-04-25T07:38:01;11.70;95.00
921;DHT22;447;51.332;6.778;2023-04-25T07:40:31;11.70;94.90
921;DHT22;447;51.332;6.778;2023-04-25T07:43:04;11.80;94.90
921;DHT22;447;51.332;6.778;2023-04-25T07:45:56;11.80;94.90
921;DHT22;447;51.332;6.778;2023-04-25T07:48:22;11.80;94.90
921;DHT22;447;51.332;6.778;2023-04-25T07:50:51;11.80;94.90
921;DHT22;447;51.332;6.778;2023-04-25T07:53:17;11.80;95.10
921;DHT22;447;51.332;6.778;2023-04-25T07:55:50;11.80;94.80
921;DHT22;447;51.332;6.778;2023-04-25T07:58:17;11.80;94.70
921;DHT22;447;51.332;6.778;2023-04-25T08:00:48;11.90;94.70
921;DHT22;447;51.332;6.778;2023-04-25T08:03:35;11.80;94.60
921;DHT22;447;51.332;6.778;2023-04-25T08:06:03;11.80;94.60
921;DHT22;447;51.332;6.778;2023-04-25T08:08:31;11.80;94.60
921;DHT22;447;51.332;6.778;2023-04-25T08:11:00;11.90;94.60
921;DHT22;447;51.332;6.778;2023-04-25T08:13:26;11.90;94.60
921;DHT22;447;51.332;6.778;2023-04-25T08:15:58;11.90;94.50
921;DHT22;447;51.332;6.778;2023-04-25T08:18:24;11.90;94.50
921;DHT22;447;51.332;6.778;2023-04-25T08:20:52;11.90;94.50
921;DHT22;447;51.332;6.778;2023-04-25T08:23:23;11.90;94.50
921;DHT22;447;51.332;6.778;2023-04-25T08:26:03;11.90;94.50
921;DHT22;447;51.332;6.778;2023-04-25T08:28:34;11.90;94.40
921;DHT22;447;51.332;6.778;2023-04-25T08:31:04;11.90;94.40
921;DHT22;447;51.332;6.778;2023-04-25T08:33:40;11.90;94.30
921;DHT22;447;51.332;6.778;2023-04-25T08:36:20;12.00;94.30
921;DHT22;447;51.332;6.778;2023-04-25T08:38:48;12.00;94.30
921;DHT22;447;51.332;6.778;2023-04-25T08:41:19;12.00;94.30
921;DHT22;447;51.332;6.778;2023-04-25T08:43:49;12.00;94.30
921;DHT22;447;51.332;6.778;2023-04-25T08:46:19;12.00;94.10
921;DHT22;447;51.332;6.778;2023-04-25T08:49:01;12.00;94.00
921;DHT22;447;51.332;6.778;2023-04-25T08:51:32;12.10;94.10
921;DHT22;447;51.332;6.778;2023-04-25T08:54:11;12.10;94.00
921;DHT22;447;51.332;6.778;2023-04-25T08:56:47;12.10;94.00
921;DHT22;447;51.332;6.778;2023-04-25T08:59:18;12.10;94.00
921;DHT22;447;51.332;6.778;2023-04-25T09:01:47;12.10;93.70
921;DHT22;447;51.332;6.778;2023-04-25T09:04:21;12.20;93.80
921;DHT22;447;51.332;6.778;2023-04-25T09:06:49;12.20;93.80
921;DHT22;447;51.332;6.778;2023-04-25T09:09:15;12.20;93.70
921;DHT22;447;51.332;6.778;2023-04-25T09:11:41;12.20;93.70
921;DHT22;447;51.332;6.778;2023-04-25T09:14:17;12.20;93.60
921;DHT22;447;51.332;6.778;2023-04-25T09:16:59;12.20;93.70
921;DHT22;447;51.332;6.778;2023-04-25T09:19:54;12.20;93.70
921;DHT22;447;51.332;6.778;2023-04-25T09:22:27;12.20;93.60
921;DHT22;447;51.332;6.778;2023-04-25T09:24:56;12.20;93.50
921;DHT22;447;51.332;6.778;2023-04-25T09:27:25;12.30;93.50
921;DHT22;447;51.332;6.778;2023-04-25T09:30:29;12.30;93.50
921;DHT22;447;51.332;6.778;2023-04-25T09:33:11;12.30;93.40
921;DHT22;447;51.332;6.778;2023-04-25T09:35:45;12.30;93.40
921;DHT22;447;51.332;6.778;2023-04-25T09:38:22;12.30;93.20
921;DHT22;447;51.332;6.778;2023-04-25T09:40:48;12.30;93.20
921;DHT22;447;51.332;6.778;2023-04-25T09:43:25;12.30;93.20
921;DHT22;447;51.332;6.778;2023-04-25T09:45:53;12.40;93.40
921;DHT22;447;51.332;6.778;2023-04-25T09:48:25;12.40;93.30
921;DHT22;447;51.332;6.778;2023-04-25T09:53:29;12.40;92.90
921;DHT22;447;51.332;6.778;2023-04-25T09:56:15;12.40;92.80
921;DHT22;447;51.332;6.778;2023-04-25T09:58:42;12.40;92.70
921;DHT22;447;51.332;6.778;2023-04-25T10:01:11;12.50;92.60
921;DHT22;447;51.332;6.778;2023-04-25T10:03:50;12.50;92.50
921;DHT22;447;51.332;6.778;2023-04-25T10:06:35;12.50;92.60
921;DHT22;447;51.332;6.778;2023-04-25T10:09:02;12.50;92.60
921;DHT22;447;51.332;6.778;2023-04-25T10:11:30;12.50;92.50
921;DHT22;447;51.332;6.778;2023-04-25T10:13:57;12.50;92.40
921;DHT22;447;51.332;6.778;2023-04-25T10:16:24;12.50;92.10
921;DHT22;447;51.332;6.778;2023-04-25T10:18:58;12.60;91.90
921;DHT22;447;51.332;6.778;2023-04-25T10:21:27;12.50;92.20
921;DHT22;447;51.332;6.778;2023-04-25T10:23:54;12.60;92.00
921;DHT22;447;51.332;6.778;2023-04-25T10:26:21;12.60;92.10
921;DHT22;447;51.332;6.778;2023-04-25T10:29:00;12.60;92.00
921;DHT22;447;51.332;6.778;2023-04-25T10:31:31;12.60;91.50
921;DHT22;447;51.332;6.778;2023-04-25T10:34:00;12.60;91.20
921;DHT22;447;51.332;6.778;2023-04-25T10:36:31;12.60;91.10
921;DHT22;447;51.332;6.778;2023-04-25T10:39:05;12.60;91.10
921;DHT22;447;51.332;6.778;2023-04-25T10:41:46;12.70;91.00
921;DHT22;447;51.332;6.778;2023-04-25T10:44:13;12.70;91.00
921;DHT22;447;51.332;6.778;2023-04-25T10:46:39;12.70;91.00
921;DHT22;447;51.332;6.778;2023-04-25T10:49:08;12.70;90.90
921;DHT22;447;51.332;6.778;2023-04-25T10:51:36;12.70;90.60
921;DHT22;447;51.332;6.778;2023-04-25T10:54:06;12.70;90.20
921;DHT22;447;51.332;6.778;2023-04-25T10:56:40;12.70;89.70
921;DHT22;447;51.332;6.778;2023-04-25T10:59:19;12.80;89.70
921;DHT22;447;51.332;6.778;2023-04-25T11:01:47;12.80;89.70
921;DHT22;447;51.332;6.778;2023-04-25T11:04:32;12.80;89.50
921;DHT22;447;51.332;6.778;2023-04-25T11:07:34;12.80;89.60
921;DHT22;447;51.332;6.778;2023-04-25T11:10:05;12.80;89.60
921;DHT22;447;51.332;6.778;2023-04-25T11:12:36;12.80;89.50
921;DHT22;447;51.332;6.778;2023-04-25T11:15:06;12.80;89.90
921;DHT22;447;51.332;6.778;2023-04-25T11:17:35;12.80;90.00
921;DHT22;447;51.332;6.778;2023-04-25T11:20:03;12.90;90.00
921;DHT22;447;51.332;6.778;2023-04-25T11:22:38;12.90;89.20
921;DHT22;447;51.332;6.778;2023-04-25T11:25:11;12.90;89.00
921;DHT22;447;51.332;6.778;2023-04-25T11:30:20;12.90;88.60
921;DHT22;447;51.332;6.778;2023-04-25T11:32:49;13.00;88.50
921;DHT22;447;51.332;6.778;2023-04-25T11:35:16;13.00;88.60
921;DHT22;447;51.332;6.778;2023-04-25T11:37:43;13.00;88.90
921;DHT22;447;51.332;6.778;2023-04-25T11:40:11;13.00;89.30
921;DHT22;447;51.332;6.778;2023-04-25T11:42:44;13.00;89.60
921;DHT22;447;51.332;6.778;2023-04-25T11:45:13;13.00;89.80
921;DHT22;447;51.332;6.778;2023-04-25T11:47:40;13.00;90.00
921;DHT22;447;51.332;6.778;2023-04-25T11:50:07;13.00;90.00
921;DHT22;447;51.332;6.778;2023-04-25T11:52:39;13.00;90.10
921;DHT22;447;51.332;6.778;2023-04-25T11:55:12;13.10;90.30
921;DHT22;447;51.332;6.778;2023-04-25T11:57:44;13.10;90.40
921;DHT22;447;51.332;6.778;2023-04-25T12:02:41;13.10;90.50
921;DHT22;447;51.332;6.778;2023-04-25T12:05:09;13.10;90.50
921;DHT22;447;51.332;6.778;2023-04-25T12:07:35;13.10;90.60
921;DHT22;447;51.332;6.778;2023-04-25T12:10:13;13.10;90.60
921;DHT22;447;51.332;6.778;2023-04-25T12:12:46;13.10;90.50
921;DHT22;447;51.332;6.778;2023-04-25T12:15:22;13.10;90.60
921;DHT22;447;51.332;6.778;2023-04-25T12:17:50;13.10;90.70
921;DHT22;447;51.332;6.778;2023-04-25T12:20:21;13.10;90.70
921;DHT22;447;51.332;6.778;2023-04-25T12:22:50;13.10;90.90
921;DHT22;447;51.332;6.778;2023-04-25T12:25:39;13.10;91.10
921;DHT22;447;51.332;6.778;2023-04-25T12:28:16;13.10;91.30
921;DHT22;447;51.332;6.778;2023-04-25T12:31:04;13.10;91.40
921;DHT22;447;51.332;6.778;2023-04-25T12:33:33;13.10;91.60
921;DHT22;447;51.332;6.778;2023-04-25T12:36:04;13.10;91.70
921;DHT22;447;51.332;6.778;2023-04-25T12:38:39;13.10;91.70
921;DHT22;447;51.332;6.778;2023-04-25T12:41:11;13.10;91.70
921;DHT22;447;51.332;6.778;2023-04-25T12:43:37;13.10;91.70
921;DHT22;447;51.332;6.778;2023-04-25T12:46:03;13.10;91.70
921;DHT22;447;51.332;6.778;2023-04-25T12:48:33;13.20;91.80
921;DHT22;447;51.332;6.778;2023-04-25T12:50:59;13.20;91.80
921;DHT22;447;51.332;6.778;2023-04-25T12:53:30;13.20;91.90
921;DHT22;447;51.332;6.778;2023-04-25T12:55:58;13.20;91.90
921;DHT22;447;51.332;6.778;2023-04-25T12:58:24;13.20;91.80
921;DHT22;447;51.332;6.778;2023-04-25T13:00:53;13.20;91.60
921;DHT22;447;51.332;6.778;2023-04-25T13:03:21;13.30;91.30
921;DHT22;447;51.332;6.778;2023-04-25T13:05:50;13.30;91.20
921;DHT22;447;51.332;6.778;2023-04-25T13:08:20;13.30;91.20
921;DHT22;447;51.332;6.778;2023-04-25T13:10:47;13.30;91.20
921;DHT22;447;51.332;6.778;2023-04-25T13:13:15;13.30;91.10
921;DHT22;447;51.332;6.778;2023-04-25T13:15:47;13.30;91.00
921;DHT22;447;51.332;6.778;2023-04-25T13:18:13;13.40;90.40
921;DHT22;447;51.332;6.778;2023-04-25T13:20:39;13.40;90.20
921;DHT22;447;51.332;6.778;2023-04-25T13:23:05;13.40;90.10
921;DHT22;447;51.332;6.778;2023-04-25T13:25:33;13.40;89.80
921;DHT22;447;51.332;6.778;2023-04-25T13:27:59;13.40;89.70
921;DHT22;447;51.332;6.778;2023-04-25T13:30:29;13.40;89.30
921;DHT22;447;51.332;6.778;2023-04-25T13:32:56;13.40;89.70
921;DHT22;447;51.332;6.778;2023-04-25T13:35:27;13.40;90.10
921;DHT22;447;51.332;6.778;2023-04-25T13:37:58;13.50;90.10
921;DHT22;447;51.332;6.778;2023-04-25T13:40:24;13.50;90.10
921;DHT22;447;51.332;6.778;2023-04-25T13:42:50;13.50;90.30
921;DHT22;447;51.332;6.778;2023-04-25T13:45:19;13.50;90.40
921;DHT22;447;51.332;6.778;2023-04-25T13:47:49;13.50;90.60
921;DHT22;447;51.332;6.778;2023-04-25T13:50:18;13.60;90.70
921;DHT22;447;51.332;6.778;2023-04-25T13:52:45;13.60;90.80
921;DHT22;447;51.332;6.778;2023-04-25T13:55:11;13.50;90.60
921;DHT22;447;51.332;6.778;2023-04-25T13:57:38;13.60;90.50
921;DHT22;447;51.332;6.778;2023-04-25T14:00:06;13.60;90.50
921;DHT22;447;51.332;6.778;2023-04-25T14:02:36;13.60;90.70
921;DHT22;447;51.332;6.778;2023-04-25T14:05:03;13.60;90.70
921;DHT22;447;51.332;6.778;2023-04-25T14:07:33;13.60;90.80
921;DHT22;447;51.332;6.778;2023-04-25T14:10:01;13.60;90.80
921;DHT22;447;51.332;6.778;2023-04-25T14:12:27;13.60;90.80
921;DHT22;447;51.332;6.778;2023-04-25T14:15:00;13.60;90.80
921;DHT22;447;51.332;6.778;2023-04-25T14:17:26;13.60;90.70
921;DHT22;447;51.332;6.778;2023-04-25T14:19:52;13.60;90.20
921;DHT22;447;51.332;6.778;2023-04-25T14:22:25;13.60;89.90
921;DHT22;447;51.332;6.778;2023-04-25T14:24:54;13.60;89.20
921;DHT22;447;51.332;6.778;2023-04-25T14:27:24;13.60;89.50
921;DHT22;447;51.332;6.778;2023-04-25T14:29:50;13.60;89.40
921;DHT22;447;51.332;6.778;2023-04-25T14:32:19;13.60;89.00
921;DHT22;447;51.332;6.778;2023-04-25T14:34:45;13.60;88.20
921;DHT22;447;51.332;6.778;2023-04-25T14:37:11;13.60;88.00
921;DHT22;447;51.332;6.778;2023-04-25T14:39:37;13.60;88.20
921;DHT22;447;51.332;6.778;2023-04-25T14:42:03;13.70;88.50
921;DHT22;447;51.332;6.778;2023-04-25T14:44:29;13.70;88.80
921;DHT22;447;51.332;6.778;2023-04-25T14:46:55;13.70;88.60
921;DHT22;447;51.332;6.778;2023-04-25T14:49:21;13.70;88.70
921;DHT22;447;51.332;6.778;2023-04-25T14:51:47;13.70;88.70
921;DHT22;447;51.332;6.778;2023-04-25T14:54:15;13.70;87.70
921;DHT22;447;51.332;6.778;2023-04-25T14:56:44;13.70;86.80
921;DHT22;447;51.332;6.778;2023-04-25T14:59:13;13.80;86.40
921;DHT22;447;51.332;6.778;2023-04-25T15:01:53;13.80;86.10
921;DHT22;447;51.332;6.778;2023-04-25T15:04:26;13.80;86.10
921;DHT22;447;51.332;6.778;2023-04-25T15:06:54;13.80;86.30
921;DHT22;447;51.332;6.778;2023-04-25T15:09:20;13.80;86.90
921;DHT22;447;51.332;6.778;2023-04-25T15:11:49;13.80;87.40
921;DHT22;447;51.332;6.778;2023-04-25T15:14:16;13.80;87.60
921;DHT22;447;51.332;6.778;2023-04-25T15:16:54;13.80;87.80
921;DHT22;447;51.332;6.778;2023-04-25T15:19:20;13.90;88.20
921;DHT22;447;51.332;6.778;2023-04-25T15:21:46;13.90;88.10
921;DHT22;447;51.332;6.778;2023-04-25T15:24:18;13.90;88.00
921;DHT22;447;51.332;6.778;2023-04-25T15:26:44;13.90;88.20
921;DHT22;447;51.332;6.778;2023-04-25T15:29:11;13.90;88.20
921;DHT22;447;51.332;6.778;2023-04-25T15:31:37;13.90;88.20
921;DHT22;447;51.332;6.778;2023-04-25T15:34:06;13.90;88.40
921;DHT22;447;51.332;6.778;2023-04-25T15:36:32;13.90;88.50
921;DHT22;447;51.332;6.778;2023-04-25T15:39:27;13.90;88.60
921;DHT22;447;51.332;6.778;2023-04-25T15:41:53;13.90;88.50
921;DHT22;447;51.332;6.778;2023-04-25T15:44:28;13.90;88.20
921;DHT22;447;51.332;6.778;2023-04-25T15:51:29;13.90;88.20
921;DHT22;447;51.332;6.778;2023-04-25T15:57:22;13.90;88.20
921;DHT22;447;51.332;6.778;2023-04-25T16:06:57;13.90;87.90
921;DHT22;447;51.332;6.778;2023-04-25T16:09:23;13.90;88.10
921;DHT22;447;51.332;6.778;2023-04-25T16:11:51;13.90;88.00
921;DHT22;447;51.332;6.778;2023-04-25T16:14:20;13.90;87.90
921;DHT22;447;51.332;6.778;2023-04-25T16:16:46;13.90;87.80
921;DHT22;447;51.332;6.778;2023-04-25T16:19:16;13.90;87.80
921;DHT22;447;51.332;6.778;2023-04-25T16:21:42;13.90;87.70
921;DHT22;447;51.332;6.778;2023-04-25T16:24:08;13.90;87.90
921;DHT22;447;51.332;6.778;2023-04-25T16:26:37;13.90;87.70
921;DHT22;447;51.332;6.778;2023-04-25T16:29:10;13.90;87.80
921;DHT22;447;51.332;6.778;2023-04-25T16:31:38;13.90;87.70
921;DHT22;447;51.332;6.778;2023-04-25T16:34:08;13.90;87.40
921;DHT22;447;51.332;6.778;2023-04-25T16:36:38;13.90;87.20
921;DHT22;447;51.332;6.778;2023-04-25T16:39:05;13.90;87.00
921;DHT22;447;51.332;6.778;2023-04-25T16:41:33;13.90;86.90
921;DHT22;447;51.332;6.778;2023-04-25T16:44:01;13.90;86.70
921;DHT22;447;51.332;6.778;2023-04-25T16:46:27;13.80;86.50
921;DHT22;447;51.332;6.778;2023-04-25T16:48:56;13.90;86.80
921;DHT22;447;51.332;6.778;2023-04-25T16:51:22;13.90;87.00
921;DHT22;447;51.332;6.778;2023-04-25T16:53:48;13.90;87.10
921;DHT22;447;51.332;6.778;2023-04-25T16:56:16;13.80;86.90
921;DHT22;447;51.332;6.778;2023-04-25T16:58:44;13.80;86.90
921;DHT22;447;51.332;6.778;2023-04-25T17:01:10;13.80;86.90
921;DHT22;447;51.332;6.778;2023-04-25T17:03:40;13.80;86.70
921;DHT22;447;51.332;6.778;2023-04-25T17:06:09;13.80;86.60
921;DHT22;447;51.332;6.778;2023-04-25T17:08:40;13.80;86.20
921;DHT22;447;51.332;6.778;2023-04-25T17:11:09;13.80;85.90
921;DHT22;447;51.332;6.778;2023-04-25T17:13:35;13.80;85.80
921;DHT22;447;51.332;6.778;2023-04-25T17:16:02;13.80;86.00
921;DHT22;447;51.332;6.778;2023-04-25T17:18:28;13.80;86.10
921;DHT22;447;51.332;6.778;2023-04-25T17:20:57;13.80;86.20